Time;durP1;ratioP1;P1;durP2;ratioP2;P2;SDS_P1;SDS_P2;PMS_P1;PMS_P2;Temp;Humidity;BMP_temperature;BMP_pressure;BME280_temperature;BME280_humidity;BME280_pressure;Samples;Min_cycle;Max_cycle;Signal;HPM_P1;HPM_P2
2021/04/30 00:00:09;;;;;;;667.15;632.75;;;7.60;99.90;;;;;;4972826;28;20404;-78
2021/04/30 00:02:38;;;;;;;648.47;612.88;;;7.60;99.90;;;;;;4988704;28;20426;-78
2021/04/30 00:05:55;;;;;;;693.25;638.55;;;7.60;99.90;;;;;;4974410;28;20420;-77
2021/04/30 00:08:23;;;;;;;679.97;628.30;;;7.50;99.90;;;;;;4956980;28;20451;-77
2021/04/30 00:10:51;;;;;;;678.13;629.97;;;7.40;99.90;;;;;;5005172;28;21004;-77
2021/04/30 00:13:18;;;;;;;674.65;627.05;;;7.40;99.90;;;;;;4974504;28;20484;-77
2021/04/30 00:15:47;;;;;;;674.60;625.97;;;7.40;99.90;;;;;;4973253;28;20412;-78
2021/04/30 00:18:15;;;;;;;672.13;623.50;;;7.30;99.90;;;;;;4973865;28;20412;-77
2021/04/30 00:20:51;;;;;;;664.00;615.05;;;7.40;99.90;;;;;;4988941;28;20420;-77
2021/04/30 00:23:18;;;;;;;653.80;604.97;;;7.40;99.90;;;;;;5005109;28;20408;-77
2021/04/30 00:25:46;;;;;;;662.78;613.78;;;7.30;99.90;;;;;;4974996;28;20413;-77
2021/04/30 00:31:11;;;;;;;662.10;612.93;;;7.20;99.90;;;;;;4979515;28;20410;-77
2021/04/30 00:33:39;;;;;;;665.08;610.42;;;7.20;99.90;;;;;;4977243;28;20501;-77
2021/04/30 00:36:07;;;;;;;666.20;611.00;;;7.10;99.90;;;;;;4993028;28;20855;-77
2021/04/30 00:38:34;;;;;;;666.17;611.22;;;7.00;99.90;;;;;;4977704;28;20505;-77
2021/04/30 00:41:02;;;;;;;655.47;602.08;;;6.90;99.90;;;;;;4995770;28;20819;-79
2021/04/30 00:43:30;;;;;;;650.63;597.13;;;6.90;99.90;;;;;;4996216;28;20434;-77
2021/04/30 00:45:58;;;;;;;652.63;594.03;;;7.00;99.90;;;;;;5022661;28;20438;-77
2021/04/30 00:48:26;;;;;;;669.33;607.88;;;7.00;99.90;;;;;;5027720;28;20418;-78
2021/04/30 00:50:54;;;;;;;655.50;598.95;;;7.00;99.90;;;;;;5012674;28;20494;-77
2021/04/30 00:53:22;;;;;;;658.67;604.22;;;6.90;99.90;;;;;;4999920;28;20419;-77
2021/04/30 00:55:50;;;;;;;651.03;597.83;;;6.90;99.90;;;;;;5000475;28;20404;-77
2021/04/30 00:58:18;;;;;;;649.53;598.78;;;6.80;99.90;;;;;;5016254;28;20466;-77
2021/04/30 01:00:46;;;;;;;640.60;590.88;;;6.80;99.90;;;;;;5015000;28;20485;-77
2021/04/30 01:03:17;;;;;;;655.17;606.05;;;6.70;99.90;;;;;;4995395;28;20414;-77
2021/04/30 01:05:46;;;;;;;662.15;612.85;;;6.70;99.90;;;;;;5002702;28;20430;-77
2021/04/30 01:08:13;;;;;;;662.00;612.80;;;6.60;99.90;;;;;;4979996;28;20437;-77
2021/04/30 01:10:41;;;;;;;664.40;615.75;;;6.70;99.90;;;;;;4963402;28;20422;-77
2021/04/30 01:13:12;;;;;;;670.72;622.20;;;6.70;99.90;;;;;;4979432;28;20426;-78
2021/04/30 01:15:40;;;;;;;671.95;621.95;;;6.70;99.90;;;;;;4995385;28;20434;-77
2021/04/30 01:18:08;;;;;;;679.85;632.13;;;6.60;99.90;;;;;;4995424;28;20414;-77
2021/04/30 01:20:35;;;;;;;673.63;626.53;;;6.70;99.90;;;;;;5012872;28;20768;-76
2021/04/30 01:23:04;;;;;;;659.63;613.00;;;6.70;99.90;;;;;;4997368;28;20800;-77
2021/04/30 01:25:35;;;;;;;655.45;612.45;;;6.60;99.90;;;;;;4982002;28;20453;-77
2021/04/30 01:28:03;;;;;;;666.47;623.97;;;6.60;99.90;;;;;;5000331;28;20502;-77
2021/04/30 01:30:34;;;;;;;669.53;628.00;;;6.60;99.90;;;;;;5001928;28;20474;-77
2021/04/30 01:33:03;;;;;;;664.30;624.50;;;6.60;99.90;;;;;;4961777;29;20417;-77
2021/04/30 01:35:33;;;;;;;667.75;628.35;;;6.60;99.90;;;;;;4960057;29;20980;-77
2021/04/30 01:38:04;;;;;;;671.17;632.63;;;6.50;99.90;;;;;;4959243;28;20480;-77
2021/04/30 01:40:33;;;;;;;650.88;610.28;;;6.50;99.90;;;;;;4957887;29;20417;-77
2021/04/30 01:43:05;;;;;;;653.45;613.55;;;6.50;99.90;;;;;;4956375;28;20477;-78
2021/04/30 01:45:36;;;;;;;660.35;624.70;;;6.60;99.90;;;;;;4956031;28;20433;-77
2021/04/30 01:48:29;;;;;;;652.15;612.50;;;6.60;99.90;;;;;;4955969;29;20900;-78
2021/04/30 01:50:58;;;;;;;642.20;601.40;;;6.50;99.90;;;;;;4955544;28;20429;-77
2021/04/30 01:53:28;;;;;;;652.65;615.42;;;6.40;99.90;;;;;;4955639;29;20486;-77
2021/04/30 01:55:56;;;;;;;662.60;625.92;;;6.40;99.90;;;;;;4957029;29;20421;-78
2021/04/30 01:58:24;;;;;;;650.33;614.53;;;6.40;99.90;;;;;;4955823;28;20450;-78
2021/04/30 02:00:53;;;;;;;656.83;622.42;;;6.40;99.90;;;;;;4956128;28;20436;-77
2021/04/30 02:03:26;;;;;;;660.60;626.10;;;6.30;99.90;;;;;;4954842;28;20422;-78
2021/04/30 02:05:54;;;;;;;650.88;614.90;;;6.30;99.90;;;;;;4956961;29;20437;-77
2021/04/30 02:08:23;;;;;;;656.80;616.40;;;6.30;99.90;;;;;;4955801;28;20442;-78
2021/04/30 02:10:55;;;;;;;640.30;599.40;;;6.30;99.90;;;;;;4957508;28;20512;-77
2021/04/30 02:13:23;;;;;;;637.80;597.70;;;6.30;99.90;;;;;;4957907;28;20767;-77
2021/04/30 02:15:53;;;;;;;643.60;604.60;;;6.30;99.90;;;;;;4956915;28;20425;-77
2021/04/30 02:18:21;;;;;;;655.47;625.60;;;6.20;99.90;;;;;;4957583;28;20499;-80
2021/04/30 02:20:49;;;;;;;653.25;623.13;;;6.10;99.90;;;;;;4957326;28;20420;-77
2021/04/30 02:23:17;;;;;;;635.20;607.35;;;6.10;99.90;;;;;;4957724;28;20424;-77
2021/04/30 02:25:44;;;;;;;633.13;605.17;;;6.10;99.90;;;;;;4957585;29;20450;-77
2021/04/30 02:28:13;;;;;;;591.67;567.08;;;6.20;99.90;;;;;;4957089;28;20433;-78
2021/04/30 02:31:05;;;;;;;639.60;611.30;;;6.20;99.90;;;;;;4963471;28;20414;-77
2021/04/30 02:33:33;;;;;;;623.58;597.03;;;6.30;99.90;;;;;;4995956;28;20419;-77
2021/04/30 02:36:00;;;;;;;612.40;587.00;;;6.20;99.90;;;;;;4995128;28;20418;-77
2021/04/30 02:38:28;;;;;;;625.60;598.40;;;6.20;99.90;;;;;;4994840;28;20429;-77
2021/04/30 02:40:58;;;;;;;615.15;589.30;;;6.20;99.90;;;;;;4995338;28;20807;-79
2021/04/30 02:43:26;;;;;;;587.47;563.45;;;6.30;99.90;;;;;;4994824;28;20948;-77
2021/04/30 02:45:54;;;;;;;594.63;570.23;;;6.20;99.90;;;;;;4976704;28;20423;-77
2021/04/30 02:48:27;;;;;;;592.60;568.10;;;6.10;99.90;;;;;;4976741;28;20505;-78
2021/04/30 02:50:56;;;;;;;616.95;589.67;;;6.10;99.90;;;;;;4977465;28;20879;-77
2021/04/30 02:53:24;;;;;;;585.92;562.22;;;6.10;99.90;;;;;;4977520;28;20922;-77
2021/04/30 02:55:52;;;;;;;599.97;575.40;;;6.00;99.90;;;;;;4995120;28;20473;-80
2021/04/30 02:58:21;;;;;;;592.00;567.83;;;6.00;99.90;;;;;;5009983;28;20410;-78
2021/04/30 03:03:43;;;;;;;622.47;595.83;;;6.00;99.90;;;;;;4995417;28;20453;-78
2021/04/30 03:06:11;;;;;;;582.15;558.45;;;6.00;99.90;;;;;;4995586;28;20450;-77
2021/04/30 03:08:39;;;;;;;632.13;596.58;;;5.90;99.90;;;;;;4978339;28;20414;-77
2021/04/30 03:11:07;;;;;;;476.20;458.10;;;6.00;99.90;;;;;;5011140;28;20454;-78
2021/04/30 03:13:34;;;;;;;426.77;411.02;;;6.10;99.90;;;;;;4962280;28;20437;-77
2021/04/30 03:16:03;;;;;;;408.65;394.00;;;6.00;99.90;;;;;;4994963;28;20425;-80
2021/04/30 03:18:30;;;;;;;471.88;453.75;;;6.00;99.90;;;;;;5011335;28;20933;-77
2021/04/30 03:20:58;;;;;;;391.33;377.02;;;6.00;99.90;;;;;;4978216;28;20407;-80
2021/04/30 03:23:26;;;;;;;616.28;589.80;;;5.90;99.90;;;;;;4994228;28;20982;-77
2021/04/30 03:25:54;;;;;;;516.95;497.08;;;5.80;99.90;;;;;;4995415;28;20418;-78
2021/04/30 03:28:21;;;;;;;356.15;343.70;;;5.70;99.90;;;;;;4995624;28;20913;-78
2021/04/30 03:30:52;;;;;;;374.77;361.55;;;5.70;99.90;;;;;;4994480;28;20422;-78
2021/04/30 03:33:20;;;;;;;276.33;267.13;;;5.80;99.90;;;;;;4995760;28;20468;-78
2021/04/30 03:35:47;;;;;;;224.68;217.35;;;5.70;99.90;;;;;;4995360;28;20968;-77
2021/04/30 03:38:18;;;;;;;256.10;247.60;;;5.70;99.90;;;;;;4995301;28;20421;-77
2021/04/30 03:40:46;;;;;;;196.90;190.35;;;5.80;99.90;;;;;;4994271;28;20398;-77
2021/04/30 03:43:14;;;;;;;186.73;180.63;;;5.80;99.90;;;;;;4995156;28;20406;-77
2021/04/30 03:45:42;;;;;;;160.25;154.95;;;5.70;99.90;;;;;;4994110;28;20430;-78
2021/04/30 03:48:16;;;;;;;166.10;160.63;;;5.70;99.90;;;;;;4994374;28;20473;-78
2021/04/30 03:50:45;;;;;;;186.90;180.80;;;5.70;99.90;;;;;;5010515;28;20933;-78
2021/04/30 03:53:12;;;;;;;210.02;203.13;;;5.80;99.90;;;;;;4995074;28;20414;-78
2021/04/30 03:55:40;;;;;;;424.73;409.05;;;5.90;99.90;;;;;;4995455;28;20450;-78
2021/04/30 03:58:08;;;;;;;640.92;610.40;;;5.70;99.90;;;;;;4977261;28;20453;-78
2021/04/30 04:00:36;;;;;;;630.30;598.75;;;5.40;99.90;;;;;;4977118;28;20414;-78
2021/04/30 04:05:57;;;;;;;619.83;588.83;;;5.10;99.90;;;;;;4995649;28;20802;-77
2021/04/30 04:08:27;;;;;;;601.60;572.15;;;4.90;99.90;;;;;;4995899;28;20568;-77
2021/04/30 04:10:55;;;;;;;455.88;438.00;;;4.80;99.90;;;;;;4995850;28;20501;-77
2021/04/30 04:13:26;;;;;;;487.25;467.13;;;4.70;99.90;;;;;;5009756;28;20406;-77
2021/04/30 04:15:59;;;;;;;584.08;549.65;;;4.70;99.90;;;;;;5009733;28;20441;-77
2021/04/30 04:18:26;;;;;;;572.35;539.92;;;4.70;99.90;;;;;;4978359;28;20549;-80
2021/04/30 04:20:54;;;;;;;551.85;519.72;;;4.60;99.90;;;;;;4994738;28;20449;-78
2021/04/30 04:23:25;;;;;;;551.78;521.15;;;4.50;99.90;;;;;;5011885;28;20414;-78
2021/04/30 04:25:53;;;;;;;536.70;505.92;;;4.50;99.90;;;;;;4998702;28;20423;-77
2021/04/30 04:28:24;;;;;;;544.05;512.25;;;4.50;99.90;;;;;;4989569;28;20418;-77
2021/04/30 04:30:52;;;;;;;542.83;511.90;;;4.60;99.90;;;;;;5020488;28;20425;-77
2021/04/30 04:33:20;;;;;;;549.47;519.50;;;4.70;99.90;;;;;;5006932;28;20512;-77
2021/04/30 04:35:47;;;;;;;545.20;519.97;;;4.80;99.90;;;;;;4989020;28;20414;-77
2021/04/30 04:38:14;;;;;;;513.88;492.08;;;4.90;99.90;;;;;;5005713;28;20417;-77
2021/04/30 04:40:45;;;;;;;518.63;495.88;;;5.00;99.90;;;;;;5000805;28;20411;-77
2021/04/30 04:43:13;;;;;;;558.67;532.58;;;5.10;99.90;;;;;;4961127;28;20422;-77
2021/04/30 04:45:41;;;;;;;557.03;530.08;;;5.10;99.90;;;;;;5008543;28;20818;-78
2021/04/30 04:51:03;;;;;;;560.47;532.30;;;5.20;99.90;;;;;;5009322;28;20518;-77
2021/04/30 04:53:31;;;;;;;574.67;546.67;;;5.20;99.90;;;;;;4994371;28;20939;-77
2021/04/30 04:56:24;;;;;;;580.58;550.97;;;5.30;99.90;;;;;;4993204;28;20410;-78
2021/04/30 04:58:55;;;;;;;583.43;552.37;;;5.40;99.90;;;;;;4992944;28;20500;-78
2021/04/30 05:01:26;;;;;;;591.92;558.80;;;5.50;99.90;;;;;;4959605;28;20411;-79
2021/04/30 05:03:54;;;;;;;593.42;559.35;;;5.50;99.90;;;;;;5015793;28;20413;-78
2021/04/30 05:06:22;;;;;;;625.35;580.85;;;5.70;99.90;;;;;;5001606;28;20450;-79
2021/04/30 05:08:49;;;;;;;616.05;568.80;;;5.80;99.90;;;;;;4992448;28;20423;-78
2021/04/30 05:11:18;;;;;;;609.88;564.22;;;5.90;99.90;;;;;;4994340;28;20485;-79
2021/04/30 05:13:45;;;;;;;615.38;570.20;;;6.00;99.90;;;;;;4976120;28;20414;-78
2021/04/30 05:16:13;;;;;;;632.38;591.50;;;6.10;99.90;;;;;;4974814;28;20426;-80
2021/04/30 05:18:42;;;;;;;611.13;583.38;;;6.30;99.90;;;;;;4960084;28;20473;-78
2021/04/30 05:21:11;;;;;;;602.60;574.90;;;6.50;99.90;;;;;;4994306;28;20419;-78
2021/04/30 05:23:39;;;;;;;593.97;567.55;;;6.60;99.90;;;;;;4994033;28;20414;-79
2021/04/30 05:26:07;;;;;;;584.72;558.75;;;6.60;99.90;;;;;;4976901;28;20498;-78
2021/04/30 05:28:37;;;;;;;598.75;571.25;;;6.40;99.90;;;;;;5008673;28;20430;-78
2021/04/30 05:31:04;;;;;;;577.70;550.63;;;6.50;99.90;;;;;;4992720;28;20645;-78
2021/04/30 05:33:57;;;;;;;561.03;535.78;;;6.40;99.90;;;;;;4993751;28;20422;-78
2021/04/30 05:39:20;;;;;;;566.58;540.70;;;6.60;99.90;;;;;;4997004;28;20847;-77
2021/04/30 05:41:48;;;;;;;505.15;484.95;;;6.70;99.90;;;;;;4996919;28;20422;-77
2021/04/30 05:44:17;;;;;;;652.92;623.60;;;7.00;99.90;;;;;;5011619;28;20418;-79
2021/04/30 05:46:45;;;;;;;562.28;539.60;;;7.30;99.90;;;;;;4995695;28;20473;-78
2021/04/30 05:49:13;;;;;;;392.50;377.85;;;7.30;99.90;;;;;;4997245;28;20418;-80
2021/04/30 05:51:41;;;;;;;412.20;395.63;;;7.40;99.90;;;;;;4998911;28;20418;-78
2021/04/30 05:54:09;;;;;;;541.97;519.80;;;7.30;99.90;;;;;;4997359;28;20425;-77
2021/04/30 05:56:36;;;;;;;542.15;520.53;;;7.40;99.90;;;;;;4981835;28;20899;-78
2021/04/30 05:59:04;;;;;;;601.42;576.25;;;7.50;99.90;;;;;;4998389;28;20421;-79
2021/04/30 06:01:35;;;;;;;397.40;382.85;;;7.70;99.90;;;;;;4997159;28;20505;-77
2021/04/30 06:04:03;;;;;;;161.23;155.60;;;7.80;99.90;;;;;;4998075;28;20495;-78
2021/04/30 06:06:32;;;;;;;120.82;115.35;;;8.00;99.90;;;;;;4965032;28;20518;-80
2021/04/30 06:09:01;;;;;;;516.55;495.38;;;8.40;99.90;;;;;;4980947;28;20415;-77
2021/04/30 06:11:28;;;;;;;547.05;524.10;;;8.90;99.90;;;;;;4998866;28;20481;-79
2021/04/30 06:13:56;;;;;;;610.83;584.67;;;9.80;99.90;;;;;;5013867;28;20469;-79
2021/04/30 06:16:23;;;;;;;225.02;216.65;;;10.20;99.40;;;;;;4997550;28;20414;-79
2021/04/30 06:18:52;;;;;;;55.22;52.25;;;9.90;99.40;;;;;;4964661;28;20925;-79
2021/04/30 06:21:20;;;;;;;117.18;112.70;;;10.10;98.30;;;;;;4997794;28;20834;-78
2021/04/30 06:23:50;;;;;;;30.48;28.38;;;10.40;98.10;;;;;;4981197;28;20411;-78
2021/04/30 06:26:19;;;;;;;34.53;32.08;;;10.30;98.20;;;;;;4980932;28;20427;-79
2021/04/30 06:28:46;;;;;;;14.30;10.65;;;10.60;97.90;;;;;;4997270;28;20421;-79
2021/04/30 06:31:17;;;;;;;11.90;10.20;;;10.30;96.50;;;;;;4970888;28;20479;-79
2021/04/30 06:33:50;;;;;;;15.73;14.32;;;10.30;94.90;;;;;;4961038;28;20818;-79
2021/04/30 06:36:20;;;;;;;12.63;11.32;;;10.40;94.80;;;;;;4959185;28;20456;-78
2021/04/30 06:38:50;;;;;;;11.40;9.03;;;11.00;94.60;;;;;;4960328;28;20417;-79
2021/04/30 06:41:42;;;;;;;13.57;9.75;;;11.50;93.40;;;;;;4964198;29;20500;-80
2021/04/30 06:44:09;;;;;;;13.52;9.63;;;10.90;92.90;;;;;;4964985;29;20421;-80
2021/04/30 06:46:37;;;;;;;12.40;8.38;;;10.70;93.60;;;;;;4996219;28;20429;-80
2021/04/30 06:49:06;;;;;;;19.65;15.00;;;10.60;93.70;;;;;;4960682;28;20410;-79
2021/04/30 06:51:34;;;;;;;15.70;11.77;;;10.80;93.90;;;;;;4959120;29;20786;-79
2021/04/30 06:54:02;;;;;;;17.10;13.70;;;10.90;93.00;;;;;;4960895;28;20421;-79
2021/04/30 06:56:30;;;;;;;11.48;9.63;;;10.70;93.40;;;;;;4991058;28;20429;-79
2021/04/30 06:58:59;;;;;;;19.08;13.35;;;10.50;93.80;;;;;;4978956;28;20440;-79
2021/04/30 07:04:20;;;;;;;11.80;9.63;;;10.80;93.90;;;;;;4960667;29;20509;-80
2021/04/30 07:06:48;;;;;;;11.68;9.05;;;11.50;92.90;;;;;;4974903;28;20497;-77
2021/04/30 07:09:15;;;;;;;15.18;13.73;;;12.10;91.20;;;;;;4959048;28;20433;-73
2021/04/30 07:11:43;;;;;;;11.18;8.75;;;13.10;89.70;;;;;;4977496;28;20807;-73
2021/04/30 07:14:10;;;;;;;11.20;9.15;;;14.30;82.90;;;;;;4978579;28;20898;-74
2021/04/30 07:16:37;;;;;;;12.35;8.52;;;14.40;78.60;;;;;;4960495;28;20514;-74
2021/04/30 07:19:05;;;;;;;16.25;12.48;;;14.70;77.10;;;;;;4960792;29;20421;-74
2021/04/30 07:21:34;;;;;;;695.60;648.17;;;15.50;74.20;;;;;;4962946;29;20243;-74
2021/04/30 07:24:01;;;;;;;660.23;601.03;;;16.10;70.60;;;;;;4964847;28;20465;-77
2021/04/30 07:26:30;;;;;;;;;;;18.10;63.80;;;;;;4965105;28;20252;-75
2021/04/30 07:29:00;;;;;;;;;;;19.00;58.80;;;;;;4965306;29;19922;-76
2021/04/30 07:31:31;;;;;;;;;;;19.30;54.80;;;;;;4977907;28;19957;-75
2021/04/30 07:33:58;;;;;;;;;;;17.20;56.20;;;;;;5001385;28;20442;-72
2021/04/30 07:36:26;;;;;;;677.50;607.80;;;17.30;58.70;;;;;;5001341;28;20225;-74
2021/04/30 07:39:20;;;;;;;1020.90;959.80;;;17.40;56.90;;;;;;4999557;28;20464;-74
2021/04/30 07:41:48;;;;;;;1031.82;975.47;;;16.50;58.30;;;;;;4996972;28;21104;-75
2021/04/30 07:44:16;;;;;;;970.83;922.23;;;16.40;60.40;;;;;;5013269;28;20406;-75
2021/04/30 07:46:43;;;;;;;787.87;717.47;;;18.20;58.10;;;;;;4981782;28;20485;-75
2021/04/30 07:49:12;;;;;;;1016.60;951.20;;;17.00;57.30;;;;;;4999664;28;20426;-74
2021/04/30 07:51:40;;;;;;;975.40;927.20;;;18.40;59.00;;;;;;5014772;28;20421;-75
2021/04/30 07:54:08;;;;;;;1051.30;976.70;;;16.80;56.50;;;;;;4966700;28;20411;-75
2021/04/30 07:56:36;;;;;;;1030.88;965.58;;;15.40;59.30;;;;;;5013348;28;20477;-75
2021/04/30 07:59:04;;;;;;;1036.65;975.88;;;16.20;61.50;;;;;;4981104;28;20418;-74
2021/04/30 08:01:33;;;;;;;1032.32;975.17;;;15.70;60.70;;;;;;4996318;28;20502;-79
2021/04/30 08:04:25;;;;;;;949.20;902.30;;;14.70;63.70;;;;;;4997734;28;20417;-74
2021/04/30 08:06:53;;;;;;;834.23;796.63;;;13.70;68.20;;;;;;4981440;28;20500;-76
2021/04/30 08:09:22;;;;;;;866.50;827.10;;;13.40;70.20;;;;;;4981462;28;20446;-74
2021/04/30 08:11:53;;;;;;;882.88;842.42;;;13.40;71.40;;;;;;5013624;28;20438;-74
2021/04/30 08:14:21;;;;;;;803.25;767.42;;;14.00;70.70;;;;;;4965802;28;20613;-74
2021/04/30 08:16:49;;;;;;;740.85;707.70;;;15.50;66.70;;;;;;4998126;28;20476;-73
2021/04/30 08:19:16;;;;;;;697.57;666.40;;;16.80;61.30;;;;;;4997758;28;20415;-76
2021/04/30 08:21:44;;;;;;;588.47;563.10;;;16.90;59.00;;;;;;4998040;28;20446;-74
2021/04/30 08:24:12;;;;;;;534.88;513.08;;;15.80;59.50;;;;;;4979888;28;20509;-75
2021/04/30 08:26:40;;;;;;;493.67;474.10;;;15.00;63.10;;;;;;4997931;28;20463;-73
2021/04/30 08:29:08;;;;;;;482.08;463.20;;;15.30;63.70;;;;;;4980476;28;20407;-74
2021/04/30 08:31:36;;;;;;;557.95;534.90;;;15.40;62.40;;;;;;4997596;28;20486;-74
2021/04/30 08:34:04;;;;;;;419.13;403.63;;;14.70;63.60;;;;;;4998866;28;20481;-73
2021/04/30 08:39:24;;;;;;;559.22;536.67;;;14.40;64.80;;;;;;4981353;28;20473;-74
2021/04/30 08:41:52;;;;;;;946.73;899.70;;;14.20;66.00;;;;;;5013836;28;20421;-75
2021/04/30 08:44:20;;;;;;;975.03;918.90;;;13.60;67.50;;;;;;4998982;28;20414;-74
2021/04/30 08:47:01;;;;;;;954.15;895.13;;;13.00;70.00;;;;;;5010287;28;20429;-77
2021/04/30 08:49:29;;;;;;;907.88;865.05;;;12.60;72.50;;;;;;4980090;28;20416;-75
2021/04/30 08:51:57;;;;;;;805.28;769.67;;;12.80;72.90;;;;;;5012788;28;20407;-73
2021/04/30 08:57:23;;;;;;;866.17;826.70;;;12.90;73.30;;;;;;4979258;28;20410;-74
2021/04/30 08:59:56;;;;;;;869.97;829.60;;;13.00;71.90;;;;;;4996693;28;20807;-73
2021/04/30 09:02:26;;;;;;;714.40;684.53;;;12.90;72.70;;;;;;5010058;28;20461;-73
2021/04/30 09:04:54;;;;;;;642.47;616.17;;;12.70;74.00;;;;;;4996537;28;20453;-74
2021/04/30 09:07:25;;;;;;;809.93;774.07;;;13.00;73.30;;;;;;4994205;28;20415;-75
2021/04/30 09:10:04;;;;;;;835.65;797.65;;;12.30;75.10;;;;;;4991865;28;20913;-74
2021/04/30 09:12:33;;;;;;;849.93;810.40;;;12.20;77.00;;;;;;4962297;28;20407;-74
2021/04/30 09:15:01;;;;;;;729.70;698.53;;;12.30;77.00;;;;;;5013253;28;20414;-74
2021/04/30 09:17:29;;;;;;;517.00;497.00;;;12.50;75.90;;;;;;4998496;28;20481;-74
2021/04/30 09:19:59;;;;;;;366.40;353.15;;;12.60;75.10;;;;;;4998931;28;20906;-76
2021/04/30 09:22:29;;;;;;;577.60;554.58;;;12.40;75.50;;;;;;4998994;28;20426;-77
2021/04/30 09:25:01;;;;;;;422.27;406.77;;;12.10;77.20;;;;;;4998497;28;20505;-74
2021/04/30 09:27:31;;;;;;;698.05;667.72;;;12.10;77.10;;;;;;4998436;28;20932;-75
2021/04/30 09:30:23;;;;;;;630.38;604.50;;;12.00;76.70;;;;;;5013799;28;20756;-75
2021/04/30 09:33:09;;;;;;;388.45;374.50;;;12.10;77.10;;;;;;4976342;28;20444;-74
2021/04/30 09:35:39;;;;;;;390.88;376.73;;;12.10;77.50;;;;;;4958714;29;20450;-75
2021/04/30 09:38:19;;;;;;;298.30;288.35;;;11.80;77.90;;;;;;4958929;29;20449;-74
2021/04/30 09:40:48;;;;;;;294.20;284.17;;;11.70;79.00;;;;;;4977315;28;20416;-77
2021/04/30 09:43:16;;;;;;;135.93;131.38;;;11.90;79.40;;;;;;4959319;29;20425;-74
2021/04/30 09:45:48;;;;;;;109.75;106.15;;;12.20;79.50;;;;;;4957997;28;20828;-74
2021/04/30 09:48:16;;;;;;;89.43;86.23;;;12.30;78.30;;;;;;4958856;28;20409;-75
2021/04/30 09:50:44;;;;;;;88.63;85.43;;;12.10;78.60;;;;;;4957878;28;20429;-75
2021/04/30 09:53:13;;;;;;;274.35;264.95;;;12.20;77.80;;;;;;4990080;28;20481;-74
2021/04/30 09:55:43;;;;;;;453.77;436.42;;;12.70;77.40;;;;;;4959532;28;20775;-73
2021/04/30 09:58:16;;;;;;;420.13;404.38;;;13.00;76.20;;;;;;4974889;28;20438;-75
2021/04/30 10:00:46;;;;;;;294.63;284.90;;;13.10;75.00;;;;;;4958828;28;20409;-74
2021/04/30 10:03:38;;;;;;;278.83;269.38;;;13.10;74.70;;;;;;4989906;28;20429;-75
2021/04/30 10:06:12;;;;;;;272.10;263.33;;;12.90;75.70;;;;;;4956683;29;20422;-79
2021/04/30 10:08:41;;;;;;;315.13;304.42;;;12.80;76.70;;;;;;4958811;29;20414;-74
2021/04/30 10:11:30;;;;;;;363.10;350.08;;;12.80;76.40;;;;;;4972989;28;20767;-75
2021/04/30 10:13:57;;;;;;;355.98;343.30;;;13.10;76.80;;;;;;4958095;29;20777;-74
2021/04/30 10:16:25;;;;;;;325.45;314.25;;;13.00;75.70;;;;;;4958113;28;20440;-75
2021/04/30 10:18:53;;;;;;;643.05;616.22;;;13.20;75.60;;;;;;4958420;29;20413;-75
2021/04/30 10:21:21;;;;;;;638.25;610.75;;;13.80;74.40;;;;;;4961159;28;20941;-75
2021/04/30 10:23:50;;;;;;;651.95;623.10;;;14.70;72.80;;;;;;4961093;28;20524;-75
2021/04/30 10:26:20;;;;;;;421.65;405.20;;;16.70;68.20;;;;;;4960175;28;20426;-76
2021/04/30 10:28:52;;;;;;;292.02;281.15;;;16.80;63.70;;;;;;4960867;28;20497;-76
2021/04/30 10:31:27;;;;;;;187.43;181.00;;;16.90;64.10;;;;;;4960775;28;20420;-76
2021/04/30 10:34:01;;;;;;;126.17;121.87;;;16.80;63.30;;;;;;4962551;28;20470;-76
2021/04/30 10:39:28;;;;;;;753.27;686.57;;;18.00;61.60;;;;;;4964588;28;20428;-76
2021/04/30 10:42:22;;;;;;;700.00;628.57;;;17.80;60.20;;;;;;4965995;28;21094;-74
2021/04/30 10:44:59;;;;;;;619.17;547.60;;;17.80;59.80;;;;;;4949673;28;20449;-75
2021/04/30 10:47:28;;;;;;;628.53;559.93;;;16.90;61.20;;;;;;4964484;28;20479;-73
2021/04/30 10:50:18;;;;;;;627.20;545.37;;;15.60;62.80;;;;;;4965003;28;20439;-74
2021/04/30 10:52:47;;;;;;;619.93;540.10;;;16.30;63.90;;;;;;4982539;28;20436;-75
2021/04/30 10:55:17;;;;;;;;;;;16.60;62.50;;;;;;4949187;28;20650;-74
2021/04/30 10:57:50;;;;;;;612.83;497.90;;;15.90;63.00;;;;;;4964979;28;20204;-77
2021/04/30 11:00:18;;;;;;;;;;;15.50;63.30;;;;;;4946640;28;20306;-75
2021/04/30 11:02:46;;;;;;;757.67;686.88;;;15.30;65.50;;;;;;4978325;28;20424;-75
2021/04/30 11:05:21;;;;;;;585.03;411.40;;;14.90;65.00;;;;;;4962659;28;20187;-75
2021/04/30 11:07:54;;;;;;;872.60;812.17;;;14.10;67.30;;;;;;4978223;28;20459;-76
2021/04/30 11:10:40;;;;;;;898.55;833.75;;;15.40;66.90;;;;;;4977214;28;20511;-74
2021/04/30 11:13:14;;;;;;;902.05;843.15;;;15.50;64.50;;;;;;4961965;28;20900;-75
2021/04/30 11:15:54;;;;;;;900.78;856.15;;;15.40;63.70;;;;;;4961194;28;20420;-76
2021/04/30 11:18:24;;;;;;;936.70;885.60;;;15.80;62.80;;;;;;4963601;28;20412;-76
2021/04/30 11:21:12;;;;;;;927.42;875.92;;;15.90;62.00;;;;;;4946130;28;20416;-75
2021/04/30 11:23:42;;;;;;;872.50;829.50;;;15.50;62.70;;;;;;4962312;28;20424;-73
2021/04/30 11:26:13;;;;;;;893.38;844.95;;;15.30;64.40;;;;;;4962939;28;20432;-76
2021/04/30 11:29:12;;;;;;;832.33;795.58;;;14.90;64.90;;;;;;4961870;28;20420;-74
2021/04/30 11:31:41;;;;;;;282.15;272.67;;;15.70;65.50;;;;;;4960899;28;20416;-74
2021/04/30 11:34:18;;;;;;;889.17;848.80;;;16.10;65.10;;;;;;4944174;28;20416;-73
2021/04/30 11:36:57;;;;;;;816.30;778.65;;;16.30;62.60;;;;;;4978068;28;20522;-74
2021/04/30 11:39:34;;;;;;;953.80;907.10;;;17.10;61.30;;;;;;4962264;28;20443;-74
2021/04/30 11:42:28;;;;;;;1111.97;999.90;;;18.10;59.40;;;;;;4981021;28;20467;-73
2021/04/30 11:44:56;;;;;;;1080.13;999.90;;;18.90;57.40;;;;;;4978867;28;20423;-74
2021/04/30 11:47:29;;;;;;;871.40;830.63;;;17.50;58.00;;;;;;4962476;28;20410;-76
2021/04/30 11:50:13;;;;;;;574.00;550.60;;;16.60;60.40;;;;;;4945728;28;20412;-74
2021/04/30 11:52:45;;;;;;;421.42;405.98;;;16.40;62.10;;;;;;4961585;28;20959;-73
2021/04/30 11:55:15;;;;;;;374.50;361.00;;;16.90;60.30;;;;;;4961544;28;20420;-73
2021/04/30 11:57:49;;;;;;;386.23;372.45;;;16.70;58.50;;;;;;4961637;28;20420;-73
2021/04/30 12:00:20;;;;;;;354.48;342.23;;;16.50;59.70;;;;;;4977339;28;20428;-75
2021/04/30 12:02:59;;;;;;;277.30;268.25;;;15.70;60.90;;;;;;4961291;28;20423;-74
2021/04/30 12:05:28;;;;;;;403.25;388.85;;;15.70;61.50;;;;;;4961699;28;20928;-74
2021/04/30 12:07:59;;;;;;;133.30;129.00;;;15.70;62.70;;;;;;4944835;28;20804;-73
2021/04/30 12:10:29;;;;;;;302.85;292.88;;;15.90;62.80;;;;;;4944748;28;20420;-73
2021/04/30 12:12:57;;;;;;;632.60;606.90;;;15.20;63.00;;;;;;4961428;28;20915;-74
2021/04/30 12:15:34;;;;;;;588.13;564.58;;;14.90;63.40;;;;;;4959948;28;20871;-73
2021/04/30 12:18:02;;;;;;;632.85;607.28;;;14.80;63.30;;;;;;4945392;28;20431;-75
2021/04/30 12:20:55;;;;;;;725.75;695.60;;;14.60;63.40;;;;;;4977891;28;20499;-73
2021/04/30 12:23:30;;;;;;;632.90;607.05;;;14.40;64.20;;;;;;4960536;28;20475;-76
2021/04/30 12:25:57;;;;;;;575.83;553.22;;;14.70;64.40;;;;;;4960853;28;20463;-77
2021/04/30 12:28:29;;;;;;;890.25;844.65;;;14.60;63.30;;;;;;4960744;28;20448;-74
2021/04/30 12:31:00;;;;;;;908.65;856.70;;;14.50;63.20;;;;;;4959509;28;20453;-74
2021/04/30 12:39:28;;;;;;;884.30;841.22;;;14.40;63.40;;;;;;4944000;28;20444;-75
2021/04/30 12:41:55;;;;;;;869.30;825.50;;;14.10;63.90;;;;;;4959119;28;20408;-74
2021/04/30 12:44:52;;;;;;;856.55;816.63;;;13.80;64.20;;;;;;4975678;28;20412;-74
2021/04/30 12:47:20;;;;;;;844.05;805.47;;;13.60;65.10;;;;;;4959250;28;20496;-75
2021/04/30 12:49:49;;;;;;;706.60;677.20;;;13.60;66.30;;;;;;4979996;28;20415;-74
2021/04/30 12:52:18;;;;;;;555.17;533.72;;;13.80;67.00;;;;;;4980425;28;20911;-75
2021/04/30 12:54:47;;;;;;;874.55;823.42;;;14.10;66.70;;;;;;4947838;28;20487;-78
2021/04/30 12:57:15;;;;;;;795.60;761.05;;;14.00;67.30;;;;;;4979976;28;20964;-74
2021/04/30 12:59:58;;;;;;;695.65;667.10;;;13.40;69.10;;;;;;4961893;28;20420;-74
2021/04/30 13:05:26;;;;;;;872.28;826.08;;;13.30;69.80;;;;;;4980520;28;20820;-75
2021/04/30 13:07:55;;;;;;;865.13;822.53;;;13.00;71.00;;;;;;4962963;28;20443;-73